METAR Formatted Surface Weather Observation
Issued by NWS

Home | Current Version | Previous Version | Text Only | Print | Product List | Glossary On
Versions: 1 2 3 4 5 6 7 8 9 10 11 12
961
SAUS44 KCRP 290704 COR
MTRNGP
METAR KNGP 290656Z AUTO 04008KT 10SM FEW017 28/25 A2989 RMK AO2
SLP122 T02780250 $



USA.gov is the U.S. government's official web portal to all federal, state and local government web resources and services.